Wicomico — WDC7747 — position and weather

sailwx.info

Track history (hours):
 
Tides and Currents Weather Stations Pressure Air Temp Water Temp Dewpoint Dewpoint Depression Visibility Wind Speed Wind Dir Waves Ship Positions

Wicomico

Owner: Vane Brothers Company TUG Wicomico, Philadelphia, PA. More information available from US FCC via Universal Licensing System.

Last reported at 2017-Sep-19 18:30 UTC. Time now 2017-Sep-19 18:40 UTC.
Position N 39°26' W 076°01'.

Length 33 m; draft 4.5 m.

Type: Tow > 200 m length. MMSI: 367076210.

Date/timePositionNaut miles runAvg speedWind from/ knotsBaromVisibWave heightAir tempDewpointWater temp
2017-Sep-19 18:30N 39°26' W 076°01'3 6.7
2017-Sep-19 18:00N 39°23' W 076°04'3 6.8
2017-Sep-19 17:30N 39°22' W 076°08'3 6.5
2017-Sep-19 17:00N 39°20' W 076°12'3 6.2
2017-Sep-19 16:30N 39°17' W 076°14'3 6.8
2017-Sep-19 16:00N 39°14' W 076°14'4 7.0
2017-Sep-19 15:30N 39°11' W 076°17'3 6.7
2017-Sep-19 15:00N 39°09' W 076°20'4 8.1
2017-Sep-19 14:30N 39°10' W 076°25'4 8.5
2017-Sep-19 14:00N 39°12' W 076°30'3 6.6
2017-Sep-19 13:30N 39°13' W 076°35'0 0.3
2017-Sep-19 12:58N 39°13' W 076°35'0 0.0
2017-Sep-19 12:28N 39°13' W 076°35'0 0.0
2017-Sep-19 11:58N 39°13' W 076°35'0 0.0
2017-Sep-19 11:26N 39°13' W 076°35'0 0.0
2017-Sep-19 10:59N 39°13' W 076°35'0 0.0
2017-Sep-19 10:26N 39°13' W 076°35'0 0.0
2017-Sep-19 10:00N 39°13' W 076°35'0 0.0
2017-Sep-19 09:30N 39°13' W 076°35'0 0.0
2017-Sep-19 08:57N 39°13' W 076°35'0 0.0
2017-Sep-19 08:28N 39°13' W 076°35'0 0.0
2017-Sep-19 07:58N 39°13' W 076°35'0 0.0
2017-Sep-19 07:28N 39°13' W 076°35'0 0.0
2017-Sep-19 06:59N 39°13' W 076°35'0 0.0
2017-Sep-19 06:29N 39°13' W 076°35'0 0.0
2017-Sep-19 05:59N 39°13' W 076°35'0 0.0
2017-Sep-19 05:27N 39°13' W 076°35'0 0.0
2017-Sep-19 05:00N 39°13' W 076°35'0 0.0
2017-Sep-19 04:30N 39°13' W 076°35'0 0.0
2017-Sep-19 03:58N 39°13' W 076°35'0 0.0
2017-Sep-19 03:28N 39°13' W 076°35'0 0.0
2017-Sep-19 02:52N 39°13' W 076°35'0 0.0
2017-Sep-19 02:26N 39°13' W 076°35'0 0.0
2017-Sep-19 01:59N 39°13' W 076°35'0 0.0
2017-Sep-19 01:29N 39°13' W 076°35'0 0.0
2017-Sep-19 01:00N 39°13' W 076°35'0 0.0
2017-Sep-19 00:30N 39°13' W 076°35'0 0.0
2017-Sep-19 00:00N 39°13' W 076°35'0 0.0
2017-Sep-18 23:28N 39°13' W 076°35'0 0.0
2017-Sep-18 23:00N 39°13' W 076°35'0 0.0
2017-Sep-18 22:30N 39°13' W 076°35'0 0.0
2017-Sep-18 22:00N 39°13' W 076°35'0 0.0
2017-Sep-18 21:30N 39°13' W 076°35'0 0.0
2017-Sep-18 21:00N 39°13' W 076°35'0 0.0
2017-Sep-18 20:30N 39°13' W 076°35'0 0.0
2017-Sep-18 20:00N 39°13' W 076°35'0 0.4
2017-Sep-18 19:30N 39°13' W 076°35'2 3.8
2017-Sep-18 19:00N 39°14' W 076°32'0 1.0
2017-Sep-18 18:30N 39°14' W 076°33'0 0.1
2017-Sep-18 18:01N 39°14' W 076°33'0 0.0
2017-Sep-18 17:31N 39°14' W 076°33'0 0.1
2017-Sep-18 17:00N 39°14' W 076°33'0 0.1
2017-Sep-18 16:30N 39°14' W 076°33'0 0.1
2017-Sep-18 16:00N 39°14' W 076°33'0 0.1
2017-Sep-18 15:30N 39°14' W 076°33'0 0.0
2017-Sep-18 15:00N 39°14' W 076°33'0 0.0
2017-Sep-18 14:30N 39°14' W 076°33'0 0.0
2017-Sep-18 14:00N 39°14' W 076°33'0 0.0
2017-Sep-18 13:30N 39°14' W 076°33'0 0.0
2017-Sep-18 13:01N 39°14' W 076°33'0 0.0
2017-Sep-18 12:30N 39°14' W 076°33'0 0.1
2017-Sep-18 12:00N 39°14' W 076°33'0 0.2
2017-Sep-18 11:30N 39°14' W 076°32'3 6.6
2017-Sep-18 11:00N 39°12' W 076°29'510.2
2017-Sep-18 10:31N 39°10' W 076°23'4 8.4
2017-Sep-18 10:00N 39°10' W 076°18'5 9.2
2017-Sep-18 09:30N 39°14' W 076°14'4 9.0
2017-Sep-18 09:00N 39°18' W 076°13'4 8.8
2017-Sep-18 08:30N 39°21' W 076°09'5 9.5
2017-Sep-18 08:00N 39°24' W 076°04'5 9.9
2017-Sep-18 07:30N 39°27' W 075°59'510.1
2017-Sep-18 07:00N 39°30' W 075°54'4 8.4
2017-Sep-18 06:30N 39°32' W 075°49'4 7.3
2017-Sep-18 06:00N 39°32' W 075°44'4 7.2
2017-Sep-18 05:30N 39°33' W 075°40'4 8.5
2017-Sep-18 05:00N 39°34' W 075°34'3 5.9
2017-Sep-18 04:30N 39°37' W 075°35'4 8.5
2017-Sep-18 04:00N 39°40' W 075°32'5 9.6
2017-Sep-18 03:30N 39°45' W 075°30'4 8.6
2017-Sep-18 03:01N 39°48' W 075°26'4 8.4
2017-Sep-18 02:31N 39°50' W 075°21'4 8.0
2017-Sep-18 02:01N 39°51' W 075°16'2 4.0
2017-Sep-18 01:31N 39°51' W 075°14'3 5.6
2017-Sep-18 01:01N 39°53' W 075°12'0 0.1
2017-Sep-18 00:30N 39°54' W 075°12'0 0.0
2017-Sep-18 00:01N 39°54' W 075°12'0 0.0
2017-Sep-17 23:30N 39°54' W 075°12'0 0.0
2017-Sep-17 23:00N 39°54' W 075°12'0 0.0
2017-Sep-17 22:30N 39°54' W 075°12'0 0.0
2017-Sep-17 22:00N 39°54' W 075°12'0 0.0
2017-Sep-17 21:31N 39°54' W 075°12'0 0.0
2017-Sep-17 21:01N 39°54' W 075°12'0 0.0
2017-Sep-17 20:30N 39°54' W 075°12'0 0.0
2017-Sep-17 20:01N 39°54' W 075°12'0 0.0
2017-Sep-17 19:31N 39°54' W 075°12'0 0.0
2017-Sep-17 19:00N 39°54' W 075°12'1 1.3
2017-Sep-17 18:30N 39°54' W 075°12'0 0.0
2017-Sep-17 18:01N 39°54' W 075°12'0 0.0
2017-Sep-17 17:31N 39°54' W 075°12'0 0.0
2017-Sep-17 17:00N 39°54' W 075°12'1 1.1
2017-Sep-17 16:30N 39°53' W 075°12'0 0.9
2017-Sep-17 16:01N 39°53' W 075°12'1 1.6
2017-Sep-17 15:30N 39°54' W 075°12'1 1.3
2017-Sep-17 15:00N 39°54' W 075°12'0 0.0
2017-Sep-17 14:30N 39°54' W 075°12'0 0.0
2017-Sep-17 14:00N 39°54' W 075°12'0 0.0
2017-Sep-17 13:31N 39°54' W 075°12'0 0.0
2017-Sep-17 13:01N 39°54' W 075°12'0 0.0
2017-Sep-17 12:30N 39°54' W 075°12'0 0.0
2017-Sep-17 12:00N 39°54' W 075°12'0 0.1
2017-Sep-17 11:30N 39°53' W 075°12'3 5.5
2017-Sep-17 11:00N 39°51' W 075°14'1 1.3
2017-Sep-17 10:30N 39°51' W 075°15'3 7.0
2017-Sep-17 10:00N 39°51' W 075°19'3 6.3
2017-Sep-17 09:30N 39°49' W 075°23'1 1.9
2017-Sep-17 09:01N 39°49' W 075°24'0 0.0
2017-Sep-17 08:30N 39°49' W 075°24'0 0.0
2017-Sep-17 08:01N 39°49' W 075°24'0 0.0
2017-Sep-17 07:30N 39°49' W 075°24'0 0.1
2017-Sep-17 07:00N 39°49' W 075°24'0 0.0
2017-Sep-17 06:31N 39°49' W 075°24'0 0.0
2017-Sep-17 06:01N 39°49' W 075°24'0 0.0
2017-Sep-17 05:30N 39°49' W 075°24'0 0.0
2017-Sep-17 05:00N 39°49' W 075°24'0 0.0
2017-Sep-17 04:30N 39°49' W 075°24'2 4.5
2017-Sep-17 04:00N 39°48' W 075°26'4 7.9
2017-Sep-17 03:30N 39°45' W 075°30'4 8.4
2017-Sep-17 03:00N 39°41' W 075°31'4 8.5
2017-Sep-17 02:30N 39°37' W 075°35'4 7.5
2017-Sep-17 02:00N 39°34' W 075°33'3 6.0
2017-Sep-17 01:30N 39°33' W 075°37'3 6.0
2017-Sep-17 01:00N 39°33' W 075°41'3 6.5
2017-Sep-17 00:30N 39°32' W 075°45'3 6.4
2017-Sep-17 00:00N 39°32' W 075°49'4 7.3
2017-Sep-16 23:30N 39°31' W 075°54'4 8.3
2017-Sep-16 23:00N 39°28' W 075°58'4 8.6
2017-Sep-16 22:30N 39°25' W 076°02'4 8.8
2017-Sep-16 22:00N 39°23' W 076°07'5 9.1
2017-Sep-16 21:30N 39°20' W 076°11'9 8.6
2017-Sep-16 20:28N 39°12' W 076°16'6 7.0
2017-Sep-16 19:41N 39°10' W 076°23'2 7.9
2017-Sep-16 19:26N 39°10' W 076°25'3 8.1
2017-Sep-16 19:01N 39°12' W 076°29'4 7.7
2017-Sep-16 18:30N 39°13' W 076°34'1 2.2
2017-Sep-16 18:01N 39°13' W 076°35'0 0.0
2017-Sep-16 17:30N 39°13' W 076°35'0 0.0
2017-Sep-16 17:00N 39°13' W 076°35'0 0.0
2017-Sep-16 16:30N 39°13' W 076°35'0 0.0
2017-Sep-16 16:00N 39°13' W 076°35'0 0.0
2017-Sep-16 15:30N 39°13' W 076°35'0 0.0
2017-Sep-16 15:01N 39°13' W 076°35'0 0.0
2017-Sep-16 14:30N 39°13' W 076°35'0 0.0
2017-Sep-16 14:00N 39°13' W 076°35'0 0.0
2017-Sep-16 13:30N 39°13' W 076°35'0 0.0
2017-Sep-16 13:00N 39°13' W 076°35'0 0.0
2017-Sep-16 12:30N 39°13' W 076°35'0 0.0
2017-Sep-16 12:00N 39°13' W 076°35'0 0.0
2017-Sep-16 11:30N 39°13' W 076°35'0 0.0
2017-Sep-16 11:00N 39°13' W 076°35'0 0.0
2017-Sep-16 10:30N 39°13' W 076°35'0 0.0
2017-Sep-16 10:01N 39°13' W 076°35'0 0.0
2017-Sep-16 09:30N 39°13' W 076°35'0 0.0
2017-Sep-16 09:00N 39°13' W 076°35'0 0.0
2017-Sep-16 08:30N 39°13' W 076°35'0 0.0
2017-Sep-16 08:00N 39°13' W 076°35'0 0.0
2017-Sep-16 07:30N 39°13' W 076°35'0 0.0
2017-Sep-16 07:01N 39°13' W 076°35'0 0.0
2017-Sep-16 06:30N 39°13' W 076°35'0 0.0
2017-Sep-16 06:00N 39°13' W 076°35'0 0.0
2017-Sep-16 05:30N 39°13' W 076°35'0 0.0
2017-Sep-16 05:00N 39°13' W 076°35'0 0.0
2017-Sep-16 04:30N 39°13' W 076°35'0 0.0
2017-Sep-16 04:00N 39°13' W 076°35'0 0.0
2017-Sep-16 03:30N 39°13' W 076°35'0 0.0
2017-Sep-16 03:01N 39°13' W 076°35'0 0.0
2017-Sep-16 02:31N 39°13' W 076°35'0 0.0
2017-Sep-16 02:00N 39°13' W 076°35'0 0.0
2017-Sep-16 01:30N 39°13' W 076°35'0 0.0
2017-Sep-16 01:00N 39°13' W 076°35'0 0.0
2017-Sep-16 00:31N 39°13' W 076°35'0 0.0
2017-Sep-16 00:00N 39°13' W 076°35'0 0.0
2017-Sep-15 23:30N 39°13' W 076°35'0 0.0
2017-Sep-15 23:00N 39°13' W 076°35'0 0.0
2017-Sep-15 22:30N 39°13' W 076°35'0 0.0
2017-Sep-15 22:00N 39°13' W 076°35'0 0.2
2017-Sep-15 21:30N 39°13' W 076°35'2 5.0
2017-Sep-15 21:00N 39°13' W 076°31'4 8.6
2017-Sep-15 20:31N 39°11' W 076°26'4 8.7
2017-Sep-15 20:01N 39°09' W 076°21'9 8.0
2017-Sep-15 18:55N 39°16' W 076°14'4 8.4
2017-Sep-15 18:29N 39°19' W 076°12'4 8.6
2017-Sep-15 18:00N 39°22' W 076°08'4 8.5
2017-Sep-15 17:31N 39°24' W 076°03'4 8.4
2017-Sep-15 17:00N 39°27' W 075°60'4 8.5
2017-Sep-15 16:30N 39°30' W 075°56'4 8.3
2017-Sep-15 16:00N 39°32' W 075°51'4 7.8
2017-Sep-15 15:30N 39°32' W 075°46'5 9.3
2017-Sep-15 15:00N 39°33' W 075°40'510.3
2017-Sep-15 14:30N 39°34' W 075°33'4 9.0
2017-Sep-15 14:01N 39°38' W 075°34'510.2
2017-Sep-15 13:31N 39°43' W 075°31'5 9.4
2017-Sep-15 13:00N 39°47' W 075°28'4 8.8
2017-Sep-15 12:30N 39°49' W 075°23'4 8.0
2017-Sep-15 12:00N 39°51' W 075°18'4 7.1
2017-Sep-15 11:31N 39°51' W 075°14'0 0.3
2017-Sep-15 11:01N 39°51' W 075°14'2 4.7
2017-Sep-15 10:30N 39°54' W 075°12'0 0.0
2017-Sep-15 10:01N 39°54' W 075°12'0 0.0
2017-Sep-15 09:30N 39°54' W 075°12'0 0.0
2017-Sep-15 09:00N 39°54' W 075°12'0 0.0
2017-Sep-15 08:30N 39°54' W 075°12'0 0.0
2017-Sep-15 08:01N 39°54' W 075°12'0 0.0
2017-Sep-15 07:30N 39°54' W 075°12'0 0.0
2017-Sep-15 07:00N 39°54' W 075°12'0 0.0
2017-Sep-15 06:31N 39°54' W 075°12'0 0.0
2017-Sep-15 06:01N 39°54' W 075°12'0 0.0
2017-Sep-15 05:31N 39°54' W 075°12'0 0.0
2017-Sep-15 05:00N 39°54' W 075°12'0 0.0
2017-Sep-15 04:30N 39°54' W 075°12'0 0.0
2017-Sep-15 04:00N 39°54' W 075°12'0 0.0
2017-Sep-15 03:31N 39°54' W 075°12'0 0.0
2017-Sep-15 03:01N 39°54' W 075°12'0 0.0
2017-Sep-15 02:31N 39°54' W 075°12'0 0.0
2017-Sep-15 02:01N 39°54' W 075°12'0 0.0
2017-Sep-15 01:31N 39°54' W 075°12'0 0.0
2017-Sep-15 01:01N 39°54' W 075°12'0 0.0
2017-Sep-15 00:31N 39°54' W 075°12'0 0.0
2017-Sep-15 00:00N 39°54' W 075°12'0 0.0
2017-Sep-14 23:30N 39°54' W 075°12'0 0.0
2017-Sep-14 23:01N 39°54' W 075°12'0 0.0
2017-Sep-14 22:30N 39°54' W 075°12'0 0.0
2017-Sep-14 22:00N 39°54' W 075°12'2 4.7
2017-Sep-14 21:30N 39°51' W 075°14'0 0.5
2017-Sep-14 21:00N 39°51' W 075°14'1 1.5
2017-Sep-14 20:30N 39°52' W 075°13'0 0.2
2017-Sep-14 20:01N 39°52' W 075°13'0 0.2
2017-Sep-14 19:30N 39°52' W 075°13'0 0.1
2017-Sep-14 19:00N 39°52' W 075°13'0 0.0
2017-Sep-14 18:30N 39°52' W 075°13'0 0.0
2017-Sep-14 18:00N 39°52' W 075°13'0 0.0
2017-Sep-14 17:30N 39°52' W 075°13'0 0.0
2017-Sep-14 17:00N 39°52' W 075°13'0 0.0
2017-Sep-14 16:30N 39°52' W 075°13'0 0.0
2017-Sep-14 16:00N 39°52' W 075°13'0 0.0
2017-Sep-14 15:31N 39°52' W 075°13'0 0.0
2017-Sep-14 15:00N 39°52' W 075°13'0 0.2
2017-Sep-14 14:30N 39°52' W 075°13'0 0.2
2017-Sep-14 14:01N 39°52' W 075°13'0 0.1
2017-Sep-14 13:30N 39°52' W 075°13'0 0.0
2017-Sep-14 13:00N 39°52' W 075°13'0 0.0
2017-Sep-14 12:30N 39°52' W 075°13'0 0.0
2017-Sep-14 12:01N 39°52' W 075°13'0 0.0
2017-Sep-14 11:30N 39°52' W 075°13'0 0.0
2017-Sep-14 11:00N 39°52' W 075°13'0 0.0
2017-Sep-14 10:31N 39°52' W 075°13'0 0.0
2017-Sep-14 10:00N 39°52' W 075°13'0 0.0
2017-Sep-14 09:31N 39°52' W 075°13'0 0.0
2017-Sep-14 09:01N 39°52' W 075°13'0 0.1
2017-Sep-14 08:30N 39°52' W 075°13'0 0.3
2017-Sep-14 08:00N 39°52' W 075°13'0 0.2
2017-Sep-14 07:31N 39°52' W 075°13'0 0.1
2017-Sep-14 07:00N 39°52' W 075°13'0 0.1
2017-Sep-14 06:31N 39°52' W 075°13'0 0.0
2017-Sep-14 06:00N 39°52' W 075°13'0 0.1
2017-Sep-14 05:30N 39°52' W 075°13'0 0.0
2017-Sep-14 05:00N 39°52' W 075°13'0 0.1
2017-Sep-14 04:30N 39°52' W 075°13'0 0.0
2017-Sep-14 04:00N 39°52' W 075°13'0 0.0
2017-Sep-14 03:30N 39°52' W 075°13'0 0.0
2017-Sep-14 03:00N 39°52' W 075°13'0 0.0
2017-Sep-14 02:30N 39°52' W 075°13'0 0.1
2017-Sep-14 02:00N 39°52' W 075°13'0 0.0
2017-Sep-14 01:30N 39°52' W 075°13'0 0.2
2017-Sep-14 01:00N 39°52' W 075°13'0 0.1
2017-Sep-14 00:30N 39°52' W 075°13'0 0.0
2017-Sep-14 00:01N 39°52' W 075°13'0 0.0
2017-Sep-13 23:31N 39°52' W 075°13'0 0.0
2017-Sep-13 23:00N 39°52' W 075°13'0 0.0
2017-Sep-13 22:31N 39°52' W 075°13'0 0.0
2017-Sep-13 22:00N 39°52' W 075°13'0 0.0
2017-Sep-13 21:30N 39°52' W 075°13'0 0.0
2017-Sep-13 21:00N 39°52' W 075°13'0 0.0
2017-Sep-13 20:30N 39°52' W 075°13'0 0.0
2017-Sep-13 20:01N 39°52' W 075°13'0 0.1
2017-Sep-13 19:30N 39°52' W 075°13'0 0.2
2017-Sep-13 19:00N 39°52' W 075°13'0 0.3
2017-Sep-13 18:31N 39°52' W 075°13'0 0.1
2017-Sep-13 18:01N 39°52' W 075°13'0 0.0
2017-Sep-13 17:30N 39°52' W 075°13'0 0.1
2017-Sep-13 17:01N 39°52' W 075°13'0 0.0
2017-Sep-13 16:30N 39°52' W 075°13'0 0.0
2017-Sep-13 16:01N 39°52' W 075°13'0 0.0
2017-Sep-13 15:31N 39°52' W 075°13'0 0.0
2017-Sep-13 15:00N 39°52' W 075°13'0 0.0
2017-Sep-13 14:30N 39°52' W 075°13'0 0.0
2017-Sep-13 14:00N 39°52' W 075°13'0 0.0
2017-Sep-13 13:30N 39°52' W 075°13'1 1.7
2017-Sep-13 13:00N 39°52' W 075°13'1 2.6
2017-Sep-13 12:31N 39°54' W 075°12'2 3.7
2017-Sep-13 12:00N 39°52' W 075°13'0 0.0
2017-Sep-13 11:30N 39°52' W 075°13'0 0.0
2017-Sep-13 11:00N 39°52' W 075°13'0 0.1
2017-Sep-13 10:30N 39°52' W 075°13'3 5.9
2017-Sep-13 10:00N 39°51' W 075°17'5 9.2
2017-Sep-13 09:30N 39°50' W 075°22'2 3.4
2017-Sep-13 09:00N 39°49' W 075°24'2 4.4
2017-Sep-13 08:30N 39°50' W 075°22'4 8.5
2017-Sep-13 08:00N 39°51' W 075°17'4 8.5
2017-Sep-13 07:31N 39°53' W 075°12'1 1.4
2017-Sep-13 06:58N 39°54' W 075°12'0 0.0
2017-Sep-13 06:29N 39°54' W 075°12'0 0.0
2017-Sep-13 05:59N 39°54' W 075°12'0 0.0
2017-Sep-13 05:26N 39°54' W 075°12'0 0.0
2017-Sep-13 04:54N 39°54' W 075°12'0 0.0
2017-Sep-13 04:30N 39°54' W 075°12'0 0.0
2017-Sep-13 04:00N 39°54' W 075°12'0 0.0
2017-Sep-13 03:28N 39°54' W 075°12'0 0.0
2017-Sep-13 02:58N 39°54' W 075°12'0 0.0
2017-Sep-13 02:28N 39°54' W 075°12'0 0.0
2017-Sep-13 01:59N 39°54' W 075°12'0 0.0
2017-Sep-13 01:29N 39°54' W 075°12'1 1.7
2017-Sep-13 01:01N 39°53' W 075°12'5 9.0
2017-Sep-13 00:31N 39°51' W 075°17'5 9.4
2017-Sep-13 00:00N 39°49' W 075°23'1 2.7
2017-Sep-12 23:30N 39°49' W 075°24'3 6.4
2017-Sep-12 23:00N 39°51' W 075°21'4 7.8
2017-Sep-12 22:30N 39°51' W 075°16'4 7.2
2017-Sep-12 22:00N 39°53' W 075°12'1 1.9
2017-Sep-12 21:30N 39°54' W 075°12'0 0.1
2017-Sep-12 20:58N 39°54' W 075°12'0 0.0
2017-Sep-12 20:28N 39°54' W 075°12'0 0.0
2017-Sep-12 19:58N 39°54' W 075°12'0 0.0
2017-Sep-12 19:29N 39°54' W 075°12'0 0.0
2017-Sep-12 18:59N 39°54' W 075°12'0 0.0
2017-Sep-12 18:29N 39°54' W 075°12'0 0.0
2017-Sep-12 18:00N 39°54' W 075°12'0 0.0
2017-Sep-12 17:30N 39°54' W 075°12'0 0.0
2017-Sep-12 17:00N 39°54' W 075°12'0 0.0
2017-Sep-12 16:28N 39°54' W 075°12'0 0.0
2017-Sep-12 15:58N 39°54' W 075°12'0 0.0
2017-Sep-12 15:28N 39°54' W 075°12'0 0.0
2017-Sep-12 14:59N 39°54' W 075°12'0 0.0
2017-Sep-12 14:29N 39°54' W 075°12'0 0.0
2017-Sep-12 13:59N 39°54' W 075°12'0 0.0
2017-Sep-12 13:30N 39°54' W 075°12'0 0.0
2017-Sep-12 13:00N 39°54' W 075°12'0 0.0
2017-Sep-12 09:15N 39°54' W 075°12'0 0.0
2017-Sep-12 09:00N 39°54' W 075°12'0 0.0
2017-Sep-12 08:30N 39°54' W 075°12'0 0.0
2017-Sep-12 08:00N 39°54' W 075°12'0 0.0
2017-Sep-12 07:28N 39°54' W 075°12'0 0.0
2017-Sep-12 06:58N 39°54' W 075°12'0 0.0
2017-Sep-12 06:28N 39°54' W 075°12'0 0.0
2017-Sep-12 05:59N 39°54' W 075°12'0 0.0
2017-Sep-12 05:29N 39°54' W 075°12'0 0.0
2017-Sep-12 04:59N 39°54' W 075°12'0 0.0
2017-Sep-12 04:27N 39°54' W 075°12'0 0.0
2017-Sep-12 04:00N 39°54' W 075°12'0 0.0
2017-Sep-12 03:30N 39°54' W 075°12'0 0.0
2017-Sep-12 02:58N 39°54' W 075°12'0 0.0
2017-Sep-12 02:28N 39°54' W 075°12'0 0.0
2017-Sep-12 01:58N 39°54' W 075°12'0 0.0
2017-Sep-12 01:29N 39°54' W 075°12'0 0.0
2017-Sep-12 00:59N 39°54' W 075°12'0 0.0
2017-Sep-12 00:29N 39°54' W 075°12'0 0.0
2017-Sep-12 00:00N 39°54' W 075°12'0 0.0
2017-Sep-11 23:30N 39°54' W 075°12'0 0.0
2017-Sep-11 23:00N 39°54' W 075°12'0 0.0
2017-Sep-11 22:28N 39°54' W 075°12'0 0.0
2017-Sep-11 21:58N 39°54' W 075°12'0 0.0
2017-Sep-11 21:28N 39°54' W 075°12'0 0.0
2017-Sep-11 20:59N 39°54' W 075°12'0 0.0
2017-Sep-11 20:29N 39°54' W 075°12'0 0.0
2017-Sep-11 19:59N 39°54' W 075°12'0 0.0
2017-Sep-11 19:30N 39°54' W 075°12'0 0.0
2017-Sep-11 19:00N 39°54' W 075°12'0 0.1
2017-Sep-11 18:31N 39°54' W 075°12'2 3.0
2017-Sep-11 18:00N 39°52' W 075°13'1 2.3
2017-Sep-11 17:31N 39°51' W 075°14'1 1.2
2017-Sep-11 17:00N 39°52' W 075°13'2 3.8
2017-Sep-11 16:29N 39°54' W 075°12'0 0.0
2017-Sep-11 16:00N 39°54' W 075°12'0 0.0
2017-Sep-11 15:30N 39°54' W 075°12'0 0.0
2017-Sep-11 15:00N 39°54' W 075°12'0 0.0
2017-Sep-11 14:28N 39°54' W 075°12'0 0.0
2017-Sep-11 13:59N 39°54' W 075°12'0 0.0
2017-Sep-11 13:23N 39°54' W 075°12'0 0.0
2017-Sep-11 12:59N 39°54' W 075°12'0 0.0
2017-Sep-11 12:30N 39°54' W 075°12'0 0.0
2017-Sep-11 12:00N 39°54' W 075°12'0 0.0
2017-Sep-11 11:30N 39°54' W 075°12'0 0.0
2017-Sep-11 11:00N 39°54' W 075°12'0 0.0
2017-Sep-11 10:28N 39°54' W 075°12'0 0.0
2017-Sep-11 09:58N 39°54' W 075°12'0 0.0
2017-Sep-11 09:29N 39°54' W 075°12'0 0.0
2017-Sep-11 08:59N 39°54' W 075°12'0 0.0
2017-Sep-11 08:29N 39°54' W 075°12'0 0.0
2017-Sep-11 08:00N 39°54' W 075°12'0 0.0
2017-Sep-11 07:30N 39°54' W 075°12'0 0.0
2017-Sep-11 07:00N 39°54' W 075°12'0 0.0
2017-Sep-11 06:28N 39°54' W 075°12'0 0.0
2017-Sep-11 05:58N 39°54' W 075°12'0 0.4
2017-Sep-11 05:31N 39°54' W 075°12'3 5.3
2017-Sep-11 05:00N 39°51' W 075°14'0 0.0
2017-Sep-11 04:28N 39°51' W 075°14'0 0.6
2017-Sep-11 03:58N 39°51' W 075°14'0 0.8
2017-Sep-11 03:29N 39°52' W 075°14'0 0.0
2017-Sep-11 03:00N 39°52' W 075°14'0 0.1
2017-Sep-11 02:30N 39°52' W 075°14'0 0.1
2017-Sep-11 02:00N 39°52' W 075°14'0 0.0
2017-Sep-11 01:28N 39°52' W 075°14'0 0.0
2017-Sep-11 00:58N 39°52' W 075°14'0 0.0
2017-Sep-11 00:28N 39°52' W 075°14'0 0.0
2017-Sep-10 23:59N 39°52' W 075°14'0 0.0
2017-Sep-10 23:29N 39°52' W 075°14'0 0.1
2017-Sep-10 22:59N 39°52' W 075°14'0 0.2
2017-Sep-10 22:30N 39°52' W 075°13'0 0.2
2017-Sep-10 22:00N 39°52' W 075°13'0 0.1
2017-Sep-10 21:30N 39°52' W 075°13'0 0.0
2017-Sep-10 20:58N 39°52' W 075°13'0 0.0
2017-Sep-10 20:28N 39°52' W 075°13'0 0.0
2017-Sep-10 19:58N 39°52' W 075°13'0 0.0
2017-Sep-10 19:29N 39°52' W 075°13'0 0.0
2017-Sep-10 18:59N 39°52' W 075°13'0 0.0
2017-Sep-10 18:29N 39°52' W 075°13'0 0.0
2017-Sep-10 18:00N 39°52' W 075°13'0 0.0
2017-Sep-10 17:30N 39°52' W 075°13'0 0.0
2017-Sep-10 17:00N 39°52' W 075°13'0 0.3
2017-Sep-10 16:28N 39°52' W 075°14'0 0.1
2017-Sep-10 15:58N 39°52' W 075°14'0 0.0
2017-Sep-10 15:28N 39°52' W 075°14'0 0.0
2017-Sep-10 14:59N 39°52' W 075°14'0 0.0
2017-Sep-10 13:59N 39°52' W 075°14'0 0.0
2017-Sep-10 13:30N 39°52' W 075°14'0 0.0
2017-Sep-10 13:00N 39°52' W 075°14'0 0.0
2017-Sep-10 12:30N 39°52' W 075°14'0 0.0
2017-Sep-10 11:58N 39°52' W 075°14'0 0.0
2017-Sep-10 11:28N 39°52' W 075°14'0 0.0
2017-Sep-10 10:58N 39°52' W 075°14'0 0.0
2017-Sep-10 10:29N 39°52' W 075°14'0 0.1
2017-Sep-10 09:59N 39°52' W 075°13'0 0.2
2017-Sep-10 09:26N 39°52' W 075°13'0 0.1
2017-Sep-10 09:00N 39°52' W 075°13'0 0.0
2017-Sep-10 08:30N 39°52' W 075°13'0 0.0
2017-Sep-10 08:00N 39°52' W 075°13'0 0.0
2017-Sep-10 07:28N 39°52' W 075°13'0 0.0
2017-Sep-10 06:58N 39°52' W 075°13'0 0.0
2017-Sep-10 06:28N 39°52' W 075°13'0 0.0
2017-Sep-10 05:59N 39°52' W 075°13'0 0.0
2017-Sep-10 05:29N 39°52' W 075°13'0 0.0
2017-Sep-10 04:59N 39°52' W 075°13'0 0.1
2017-Sep-10 04:30N 39°52' W 075°13'0 0.3
2017-Sep-10 04:00N 39°52' W 075°14'0 0.1
2017-Sep-10 03:30N 39°52' W 075°14'0 0.0
2017-Sep-10 02:58N 39°52' W 075°14'0 0.1
2017-Sep-10 02:28N 39°52' W 075°14'0 0.0
2017-Sep-10 01:58N 39°52' W 075°14'0 0.0
2017-Sep-10 01:29N 39°52' W 075°14'0 0.0
2017-Sep-10 00:59N 39°52' W 075°14'0 0.0
2017-Sep-10 00:29N 39°52' W 075°14'0 0.0
2017-Sep-10 00:00N 39°52' W 075°14'0 0.0
2017-Sep-09 23:30N 39°52' W 075°14'0 0.0
2017-Sep-09 23:00N 39°52' W 075°14'0 0.0
2017-Sep-09 22:28N 39°52' W 075°14'0 0.1
2017-Sep-09 21:58N 39°51' W 075°14'0 0.3
2017-Sep-09 21:28N 39°52' W 075°13'0 0.1
2017-Sep-09 20:59N 39°52' W 075°13'0 0.0
2017-Sep-09 20:29N 39°52' W 075°13'0 0.0
2017-Sep-09 19:59N 39°52' W 075°13'0 0.0
2017-Sep-09 19:30N 39°52' W 075°13'0 0.0
2017-Sep-09 19:00N 39°52' W 075°13'  
Track history (hours):
 
Tides and Currents Weather Stations Pressure Air Temp Water Temp Dewpoint Dewpoint Depression Visibility Wind Speed Wind Dir Waves Ship Positions

Wicomico

Owner: Vane Brothers Company TUG Wicomico, Philadelphia, PA. More information available from US FCC via Universal Licensing System.

Last reported at 2017-Sep-19 18:30 UTC. Time now 2017-Sep-19 18:40 UTC.
Position N 39°26' W 076°01'.

Length 33 m; draft 4.5 m.

Type: Tow > 200 m length. MMSI: 367076210.

Date/timePositionNaut miles runAvg speedWind from/ knotsBaromVisibWave heightAir tempDewpointWater temp
2017-Sep-19 18:30N 39°26' W 076°01'3 6.7
2017-Sep-19 18:00N 39°23' W 076°04'3 6.8
2017-Sep-19 17:30N 39°22' W 076°08'3 6.5
2017-Sep-19 17:00N 39°20' W 076°12'3 6.2
2017-Sep-19 16:30N 39°17' W 076°14'3 6.8
2017-Sep-19 16:00N 39°14' W 076°14'4 7.0
2017-Sep-19 15:30N 39°11' W 076°17'3 6.7
2017-Sep-19 15:00N 39°09' W 076°20'4 8.1
2017-Sep-19 14:30N 39°10' W 076°25'4 8.5
2017-Sep-19 14:00N 39°12' W 076°30'3 6.6
2017-Sep-19 13:30N 39°13' W 076°35'0 0.3
2017-Sep-19 12:58N 39°13' W 076°35'0 0.0
2017-Sep-19 12:28N 39°13' W 076°35'0 0.0
2017-Sep-19 11:58N 39°13' W 076°35'0 0.0
2017-Sep-19 11:26N 39°13' W 076°35'0 0.0
2017-Sep-19 10:59N 39°13' W 076°35'0 0.0
2017-Sep-19 10:26N 39°13' W 076°35'0 0.0
2017-Sep-19 10:00N 39°13' W 076°35'0 0.0
2017-Sep-19 09:30N 39°13' W 076°35'0 0.0
2017-Sep-19 08:57N 39°13' W 076°35'0 0.0
2017-Sep-19 08:28N 39°13' W 076°35'0 0.0
2017-Sep-19 07:58N 39°13' W 076°35'0 0.0
2017-Sep-19 07:28N 39°13' W 076°35'0 0.0
2017-Sep-19 06:59N 39°13' W 076°35'0 0.0
2017-Sep-19 06:29N 39°13' W 076°35'0 0.0
2017-Sep-19 05:59N 39°13' W 076°35'0 0.0
2017-Sep-19 05:27N 39°13' W 076°35'0 0.0
2017-Sep-19 05:00N 39°13' W 076°35'0 0.0
2017-Sep-19 04:30N 39°13' W 076°35'0 0.0
2017-Sep-19 03:58N 39°13' W 076°35'0 0.0
2017-Sep-19 03:28N 39°13' W 076°35'0 0.0
2017-Sep-19 02:52N 39°13' W 076°35'0 0.0
2017-Sep-19 02:26N 39°13' W 076°35'0 0.0
2017-Sep-19 01:59N 39°13' W 076°35'0 0.0
2017-Sep-19 01:29N 39°13' W 076°35'0 0.0
2017-Sep-19 01:00N 39°13' W 076°35'0 0.0
2017-Sep-19 00:30N 39°13' W 076°35'0 0.0
2017-Sep-19 00:00N 39°13' W 076°35'0 0.0
2017-Sep-18 23:28N 39°13' W 076°35'0 0.0
2017-Sep-18 23:00N 39°13' W 076°35'0 0.0
2017-Sep-18 22:30N 39°13' W 076°35'0 0.0
2017-Sep-18 22:00N 39°13' W 076°35'0 0.0
2017-Sep-18 21:30N 39°13' W 076°35'0 0.0
2017-Sep-18 21:00N 39°13' W 076°35'0 0.0
2017-Sep-18 20:30N 39°13' W 076°35'0 0.0
2017-Sep-18 20:00N 39°13' W 076°35'0 0.4
2017-Sep-18 19:30N 39°13' W 076°35'2 3.8
2017-Sep-18 19:00N 39°14' W 076°32'0 1.0
2017-Sep-18 18:30N 39°14' W 076°33'0 0.1
2017-Sep-18 18:01N 39°14' W 076°33'0 0.0
2017-Sep-18 17:31N 39°14' W 076°33'0 0.1
2017-Sep-18 17:00N 39°14' W 076°33'0 0.1
2017-Sep-18 16:30N 39°14' W 076°33'0 0.1
2017-Sep-18 16:00N 39°14' W 076°33'0 0.1
2017-Sep-18 15:30N 39°14' W 076°33'0 0.0
2017-Sep-18 15:00N 39°14' W 076°33'0 0.0
2017-Sep-18 14:30N 39°14' W 076°33'0 0.0
2017-Sep-18 14:00N 39°14' W 076°33'0 0.0
2017-Sep-18 13:30N 39°14' W 076°33'0 0.0
2017-Sep-18 13:01N 39°14' W 076°33'0 0.0
2017-Sep-18 12:30N 39°14' W 076°33'0 0.1
2017-Sep-18 12:00N 39°14' W 076°33'0 0.2
2017-Sep-18 11:30N 39°14' W 076°32'3 6.6
2017-Sep-18 11:00N 39°12' W 076°29'510.2
2017-Sep-18 10:31N 39°10' W 076°23'4 8.4
2017-Sep-18 10:00N 39°10' W 076°18'5 9.2
2017-Sep-18 09:30N 39°14' W 076°14'4 9.0
2017-Sep-18 09:00N 39°18' W 076°13'4 8.8
2017-Sep-18 08:30N 39°21' W 076°09'5 9.5
2017-Sep-18 08:00N 39°24' W 076°04'5 9.9
2017-Sep-18 07:30N 39°27' W 075°59'510.1
2017-Sep-18 07:00N 39°30' W 075°54'4 8.4
2017-Sep-18 06:30N 39°32' W 075°49'4 7.3
2017-Sep-18 06:00N 39°32' W 075°44'4 7.2
2017-Sep-18 05:30N 39°33' W 075°40'4 8.5
2017-Sep-18 05:00N 39°34' W 075°34'3 5.9
2017-Sep-18 04:30N 39°37' W 075°35'4 8.5
2017-Sep-18 04:00N 39°40' W 075°32'5 9.6
2017-Sep-18 03:30N 39°45' W 075°30'4 8.6
2017-Sep-18 03:01N 39°48' W 075°26'4 8.4
2017-Sep-18 02:31N 39°50' W 075°21'4 8.0
2017-Sep-18 02:01N 39°51' W 075°16'2 4.0
2017-Sep-18 01:31N 39°51' W 075°14'3 5.6
2017-Sep-18 01:01N 39°53' W 075°12'0 0.1
2017-Sep-18 00:30N 39°54' W 075°12'0 0.0
2017-Sep-18 00:01N 39°54' W 075°12'0 0.0
2017-Sep-17 23:30N 39°54' W 075°12'0 0.0
2017-Sep-17 23:00N 39°54' W 075°12'0 0.0
2017-Sep-17 22:30N 39°54' W 075°12'0 0.0
2017-Sep-17 22:00N 39°54' W 075°12'0 0.0
2017-Sep-17 21:31N 39°54' W 075°12'0 0.0
2017-Sep-17 21:01N 39°54' W 075°12'0 0.0
2017-Sep-17 20:30N 39°54' W 075°12'0 0.0
2017-Sep-17 20:01N 39°54' W 075°12'0 0.0
2017-Sep-17 19:31N 39°54' W 075°12'0 0.0
2017-Sep-17 19:00N 39°54' W 075°12'1 1.3
2017-Sep-17 18:30N 39°54' W 075°12'0 0.0
2017-Sep-17 18:01N 39°54' W 075°12'0 0.0
2017-Sep-17 17:31N 39°54' W 075°12'0 0.0
2017-Sep-17 17:00N 39°54' W 075°12'1 1.1
2017-Sep-17 16:30N 39°53' W 075°12'0 0.9
2017-Sep-17 16:01N 39°53' W 075°12'1 1.6
2017-Sep-17 15:30N 39°54' W 075°12'1 1.3
2017-Sep-17 15:00N 39°54' W 075°12'0 0.0
2017-Sep-17 14:30N 39°54' W 075°12'0 0.0
2017-Sep-17 14:00N 39°54' W 075°12'0 0.0
2017-Sep-17 13:31N 39°54' W 075°12'0 0.0
2017-Sep-17 13:01N 39°54' W 075°12'0 0.0
2017-Sep-17 12:30N 39°54' W 075°12'0 0.0
2017-Sep-17 12:00N 39°54' W 075°12'0 0.1
2017-Sep-17 11:30N 39°53' W 075°12'3 5.5
2017-Sep-17 11:00N 39°51' W 075°14'1 1.3
2017-Sep-17 10:30N 39°51' W 075°15'3 7.0
2017-Sep-17 10:00N 39°51' W 075°19'3 6.3
2017-Sep-17 09:30N 39°49' W 075°23'1 1.9
2017-Sep-17 09:01N 39°49' W 075°24'0 0.0
2017-Sep-17 08:30N 39°49' W 075°24'0 0.0
2017-Sep-17 08:01N 39°49' W 075°24'0 0.0
2017-Sep-17 07:30N 39°49' W 075°24'0 0.1
2017-Sep-17 07:00N 39°49' W 075°24'0 0.0
2017-Sep-17 06:31N 39°49' W 075°24'0 0.0
2017-Sep-17 06:01N 39°49' W 075°24'0 0.0
2017-Sep-17 05:30N 39°49' W 075°24'0 0.0
2017-Sep-17 05:00N 39°49' W 075°24'0 0.0
2017-Sep-17 04:30N 39°49' W 075°24'2 4.5
2017-Sep-17 04:00N 39°48' W 075°26'4 7.9
2017-Sep-17 03:30N 39°45' W 075°30'4 8.4
2017-Sep-17 03:00N 39°41' W 075°31'4 8.5
2017-Sep-17 02:30N 39°37' W 075°35'4 7.5
2017-Sep-17 02:00N 39°34' W 075°33'3 6.0
2017-Sep-17 01:30N 39°33' W 075°37'3 6.0
2017-Sep-17 01:00N 39°33' W 075°41'3 6.5
2017-Sep-17 00:30N 39°32' W 075°45'3 6.4
2017-Sep-17 00:00N 39°32' W 075°49'4 7.3
2017-Sep-16 23:30N 39°31' W 075°54'4 8.3
2017-Sep-16 23:00N 39°28' W 075°58'4 8.6
2017-Sep-16 22:30N 39°25' W 076°02'4 8.8
2017-Sep-16 22:00N 39°23' W 076°07'5 9.1
2017-Sep-16 21:30N 39°20' W 076°11'9 8.6
2017-Sep-16 20:28N 39°12' W 076°16'6 7.0
2017-Sep-16 19:41N 39°10' W 076°23'2 7.9
2017-Sep-16 19:26N 39°10' W 076°25'3 8.1
2017-Sep-16 19:01N 39°12' W 076°29'4 7.7
2017-Sep-16 18:30N 39°13' W 076°34'1 2.2
2017-Sep-16 18:01N 39°13' W 076°35'0 0.0
2017-Sep-16 17:30N 39°13' W 076°35'0 0.0
2017-Sep-16 17:00N 39°13' W 076°35'0 0.0
2017-Sep-16 16:30N 39°13' W 076°35'0 0.0
2017-Sep-16 16:00N 39°13' W 076°35'0 0.0
2017-Sep-16 15:30N 39°13' W 076°35'0 0.0
2017-Sep-16 15:01N 39°13' W 076°35'0 0.0
2017-Sep-16 14:30N 39°13' W 076°35'0 0.0
2017-Sep-16 14:00N 39°13' W 076°35'0 0.0
2017-Sep-16 13:30N 39°13' W 076°35'0 0.0
2017-Sep-16 13:00N 39°13' W 076°35'0 0.0
2017-Sep-16 12:30N 39°13' W 076°35'0 0.0
2017-Sep-16 12:00N 39°13' W 076°35'0 0.0
2017-Sep-16 11:30N 39°13' W 076°35'0 0.0
2017-Sep-16 11:00N 39°13' W 076°35'0 0.0
2017-Sep-16 10:30N 39°13' W 076°35'0 0.0
2017-Sep-16 10:01N 39°13' W 076°35'0 0.0
2017-Sep-16 09:30N 39°13' W 076°35'0 0.0
2017-Sep-16 09:00N 39°13' W 076°35'0 0.0
2017-Sep-16 08:30N 39°13' W 076°35'0 0.0
2017-Sep-16 08:00N 39°13' W 076°35'0 0.0
2017-Sep-16 07:30N 39°13' W 076°35'0 0.0
2017-Sep-16 07:01N 39°13' W 076°35'0 0.0
2017-Sep-16 06:30N 39°13' W 076°35'0 0.0
2017-Sep-16 06:00N 39°13' W 076°35'0 0.0
2017-Sep-16 05:30N 39°13' W 076°35'0 0.0
2017-Sep-16 05:00N 39°13' W 076°35'0 0.0
2017-Sep-16 04:30N 39°13' W 076°35'0 0.0
2017-Sep-16 04:00N 39°13' W 076°35'0 0.0
2017-Sep-16 03:30N 39°13' W 076°35'0 0.0
2017-Sep-16 03:01N 39°13' W 076°35'0 0.0
2017-Sep-16 02:31N 39°13' W 076°35'0 0.0
2017-Sep-16 02:00N 39°13' W 076°35'0 0.0
2017-Sep-16 01:30N 39°13' W 076°35'0 0.0
2017-Sep-16 01:00N 39°13' W 076°35'0 0.0
2017-Sep-16 00:31N 39°13' W 076°35'0 0.0
2017-Sep-16 00:00N 39°13' W 076°35'0 0.0
2017-Sep-15 23:30N 39°13' W 076°35'0 0.0
2017-Sep-15 23:00N 39°13' W 076°35'0 0.0
2017-Sep-15 22:30N 39°13' W 076°35'0 0.0
2017-Sep-15 22:00N 39°13' W 076°35'0 0.2
2017-Sep-15 21:30N 39°13' W 076°35'2 5.0
2017-Sep-15 21:00N 39°13' W 076°31'4 8.6
2017-Sep-15 20:31N 39°11' W 076°26'4 8.7
2017-Sep-15 20:01N 39°09' W 076°21'9 8.0
2017-Sep-15 18:55N 39°16' W 076°14'4 8.4
2017-Sep-15 18:29N 39°19' W 076°12'4 8.6
2017-Sep-15 18:00N 39°22' W 076°08'4 8.5
2017-Sep-15 17:31N 39°24' W 076°03'4 8.4
2017-Sep-15 17:00N 39°27' W 075°60'4 8.5
2017-Sep-15 16:30N 39°30' W 075°56'4 8.3
2017-Sep-15 16:00N 39°32' W 075°51'4 7.8
2017-Sep-15 15:30N 39°32' W 075°46'5 9.3
2017-Sep-15 15:00N 39°33' W 075°40'510.3
2017-Sep-15 14:30N 39°34' W 075°33'4 9.0
2017-Sep-15 14:01N 39°38' W 075°34'510.2
2017-Sep-15 13:31N 39°43' W 075°31'5 9.4
2017-Sep-15 13:00N 39°47' W 075°28'4 8.8
2017-Sep-15 12:30N 39°49' W 075°23'4 8.0
2017-Sep-15 12:00N 39°51' W 075°18'4 7.1
2017-Sep-15 11:31N 39°51' W 075°14'0 0.3
2017-Sep-15 11:01N 39°51' W 075°14'2 4.7
2017-Sep-15 10:30N 39°54' W 075°12'0 0.0
2017-Sep-15 10:01N 39°54' W 075°12'0 0.0
2017-Sep-15 09:30N 39°54' W 075°12'0 0.0
2017-Sep-15 09:00N 39°54' W 075°12'0 0.0
2017-Sep-15 08:30N 39°54' W 075°12'0 0.0
2017-Sep-15 08:01N 39°54' W 075°12'0 0.0
2017-Sep-15 07:30N 39°54' W 075°12'0 0.0
2017-Sep-15 07:00N 39°54' W 075°12'0 0.0
2017-Sep-15 06:31N 39°54' W 075°12'0 0.0
2017-Sep-15 06:01N 39°54' W 075°12'0 0.0
2017-Sep-15 05:31N 39°54' W 075°12'0 0.0
2017-Sep-15 05:00N 39°54' W 075°12'0 0.0
2017-Sep-15 04:30N 39°54' W 075°12'0 0.0
2017-Sep-15 04:00N 39°54' W 075°12'0 0.0
2017-Sep-15 03:31N 39°54' W 075°12'0 0.0
2017-Sep-15 03:01N 39°54' W 075°12'0 0.0
2017-Sep-15 02:31N 39°54' W 075°12'0 0.0
2017-Sep-15 02:01N 39°54' W 075°12'0 0.0
2017-Sep-15 01:31N 39°54' W 075°12'0 0.0
2017-Sep-15 01:01N 39°54' W 075°12'0 0.0
2017-Sep-15 00:31N 39°54' W 075°12'0 0.0
2017-Sep-15 00:00N 39°54' W 075°12'0 0.0
2017-Sep-14 23:30N 39°54' W 075°12'0 0.0
2017-Sep-14 23:01N 39°54' W 075°12'0 0.0
2017-Sep-14 22:30N 39°54' W 075°12'0 0.0
2017-Sep-14 22:00N 39°54' W 075°12'2 4.7
2017-Sep-14 21:30N 39°51' W 075°14'0 0.5
2017-Sep-14 21:00N 39°51' W 075°14'1 1.5
2017-Sep-14 20:30N 39°52' W 075°13'0 0.2
2017-Sep-14 20:01N 39°52' W 075°13'0 0.2
2017-Sep-14 19:30N 39°52' W 075°13'0 0.1
2017-Sep-14 19:00N 39°52' W 075°13'0 0.0
2017-Sep-14 18:30N 39°52' W 075°13'0 0.0
2017-Sep-14 18:00N 39°52' W 075°13'0 0.0
2017-Sep-14 17:30N 39°52' W 075°13'0 0.0
2017-Sep-14 17:00N 39°52' W 075°13'0 0.0
2017-Sep-14 16:30N 39°52' W 075°13'0 0.0
2017-Sep-14 16:00N 39°52' W 075°13'0 0.0
2017-Sep-14 15:31N 39°52' W 075°13'0 0.0
2017-Sep-14 15:00N 39°52' W 075°13'0 0.2
2017-Sep-14 14:30N 39°52' W 075°13'0 0.2
2017-Sep-14 14:01N 39°52' W 075°13'0 0.1
2017-Sep-14 13:30N 39°52' W 075°13'0 0.0
2017-Sep-14 13:00N 39°52' W 075°13'0 0.0
2017-Sep-14 12:30N 39°52' W 075°13'0 0.0
2017-Sep-14 12:01N 39°52' W 075°13'0 0.0
2017-Sep-14 11:30N 39°52' W 075°13'0 0.0
2017-Sep-14 11:00N 39°52' W 075°13'0 0.0
2017-Sep-14 10:31N 39°52' W 075°13'0 0.0
2017-Sep-14 10:00N 39°52' W 075°13'0 0.0
2017-Sep-14 09:31N 39°52' W 075°13'0 0.0
2017-Sep-14 09:01N 39°52' W 075°13'0 0.1
2017-Sep-14 08:30N 39°52' W 075°13'0 0.3
2017-Sep-14 08:00N 39°52' W 075°13'0 0.2
2017-Sep-14 07:31N 39°52' W 075°13'0 0.1
2017-Sep-14 07:00N 39°52' W 075°13'0 0.1
2017-Sep-14 06:31N 39°52' W 075°13'0 0.0
2017-Sep-14 06:00N 39°52' W 075°13'0 0.1
2017-Sep-14 05:30N 39°52' W 075°13'0 0.0
2017-Sep-14 05:00N 39°52' W 075°13'0 0.1
2017-Sep-14 04:30N 39°52' W 075°13'0 0.0
2017-Sep-14 04:00N 39°52' W 075°13'0 0.0
2017-Sep-14 03:30N 39°52' W 075°13'0 0.0
2017-Sep-14 03:00N 39°52' W 075°13'0 0.0
2017-Sep-14 02:30N 39°52' W 075°13'0 0.1
2017-Sep-14 02:00N 39°52' W 075°13'0 0.0
2017-Sep-14 01:30N 39°52' W 075°13'0 0.2
2017-Sep-14 01:00N 39°52' W 075°13'0 0.1
2017-Sep-14 00:30N 39°52' W 075°13'0 0.0
2017-Sep-14 00:01N 39°52' W 075°13'0 0.0
2017-Sep-13 23:31N 39°52' W 075°13'0 0.0
2017-Sep-13 23:00N 39°52' W 075°13'0 0.0
2017-Sep-13 22:31N 39°52' W 075°13'0 0.0
2017-Sep-13 22:00N 39°52' W 075°13'0 0.0
2017-Sep-13 21:30N 39°52' W 075°13'0 0.0
2017-Sep-13 21:00N 39°52' W 075°13'0 0.0
2017-Sep-13 20:30N 39°52' W 075°13'0 0.0
2017-Sep-13 20:01N 39°52' W 075°13'0 0.1
2017-Sep-13 19:30N 39°52' W 075°13'0 0.2
2017-Sep-13 19:00N 39°52' W 075°13'0 0.3
2017-Sep-13 18:31N 39°52' W 075°13'0 0.1
2017-Sep-13 18:01N 39°52' W 075°13'0 0.0
2017-Sep-13 17:30N 39°52' W 075°13'0 0.1
2017-Sep-13 17:01N 39°52' W 075°13'0 0.0
2017-Sep-13 16:30N 39°52' W 075°13'0 0.0
2017-Sep-13 16:01N 39°52' W 075°13'0 0.0
2017-Sep-13 15:31N 39°52' W 075°13'0 0.0
2017-Sep-13 15:00N 39°52' W 075°13'0 0.0
2017-Sep-13 14:30N 39°52' W 075°13'0 0.0
2017-Sep-13 14:00N 39°52' W 075°13'0 0.0
2017-Sep-13 13:30N 39°52' W 075°13'1 1.7
2017-Sep-13 13:00N 39°52' W 075°13'1 2.6
2017-Sep-13 12:31N 39°54' W 075°12'2 3.7
2017-Sep-13 12:00N 39°52' W 075°13'0 0.0
2017-Sep-13 11:30N 39°52' W 075°13'0 0.0
2017-Sep-13 11:00N 39°52' W 075°13'0 0.1
2017-Sep-13 10:30N 39°52' W 075°13'3 5.9
2017-Sep-13 10:00N 39°51' W 075°17'5 9.2
2017-Sep-13 09:30N 39°50' W 075°22'2 3.4
2017-Sep-13 09:00N 39°49' W 075°24'2 4.4
2017-Sep-13 08:30N 39°50' W 075°22'4 8.5
2017-Sep-13 08:00N 39°51' W 075°17'4 8.5
2017-Sep-13 07:31N 39°53' W 075°12'1 1.4
2017-Sep-13 06:58N 39°54' W 075°12'0 0.0
2017-Sep-13 06:29N 39°54' W 075°12'0 0.0
2017-Sep-13 05:59N 39°54' W 075°12'0 0.0
2017-Sep-13 05:26N 39°54' W 075°12'0 0.0
2017-Sep-13 04:54N 39°54' W 075°12'0 0.0
2017-Sep-13 04:30N 39°54' W 075°12'0 0.0
2017-Sep-13 04:00N 39°54' W 075°12'0 0.0
2017-Sep-13 03:28N 39°54' W 075°12'0 0.0
2017-Sep-13 02:58N 39°54' W 075°12'0 0.0
2017-Sep-13 02:28N 39°54' W 075°12'0 0.0
2017-Sep-13 01:59N 39°54' W 075°12'0 0.0
2017-Sep-13 01:29N 39°54' W 075°12'1 1.7
2017-Sep-13 01:01N 39°53' W 075°12'5 9.0
2017-Sep-13 00:31N 39°51' W 075°17'5 9.4
2017-Sep-13 00:00N 39°49' W 075°23'1 2.7
2017-Sep-12 23:30N 39°49' W 075°24'3 6.4
2017-Sep-12 23:00N 39°51' W 075°21'4 7.8
2017-Sep-12 22:30N 39°51' W 075°16'4 7.2
2017-Sep-12 22:00N 39°53' W 075°12'1 1.9
2017-Sep-12 21:30N 39°54' W 075°12'0 0.1
2017-Sep-12 20:58N 39°54' W 075°12'0 0.0
2017-Sep-12 20:28N 39°54' W 075°12'0 0.0
2017-Sep-12 19:58N 39°54' W 075°12'0 0.0
2017-Sep-12 19:29N 39°54' W 075°12'0 0.0
2017-Sep-12 18:59N 39°54' W 075°12'0 0.0
2017-Sep-12 18:29N 39°54' W 075°12'0 0.0
2017-Sep-12 18:00N 39°54' W 075°12'0 0.0
2017-Sep-12 17:30N 39°54' W 075°12'0 0.0
2017-Sep-12 17:00N 39°54' W 075°12'0 0.0
2017-Sep-12 16:28N 39°54' W 075°12'0 0.0
2017-Sep-12 15:58N 39°54' W 075°12'0 0.0
2017-Sep-12 15:28N 39°54' W 075°12'0 0.0
2017-Sep-12 14:59N 39°54' W 075°12'0 0.0
2017-Sep-12 14:29N 39°54' W 075°12'0 0.0
2017-Sep-12 13:59N 39°54' W 075°12'0 0.0
2017-Sep-12 13:30N 39°54' W 075°12'0 0.0
2017-Sep-12 13:00N 39°54' W 075°12'0 0.0
2017-Sep-12 09:15N 39°54' W 075°12'0 0.0
2017-Sep-12 09:00N 39°54' W 075°12'0 0.0
2017-Sep-12 08:30N 39°54' W 075°12'0 0.0
2017-Sep-12 08:00N 39°54' W 075°12'0 0.0
2017-Sep-12 07:28N 39°54' W 075°12'0 0.0
2017-Sep-12 06:58N 39°54' W 075°12'0 0.0
2017-Sep-12 06:28N 39°54' W 075°12'0 0.0
2017-Sep-12 05:59N 39°54' W 075°12'0 0.0
2017-Sep-12 05:29N 39°54' W 075°12'0 0.0
2017-Sep-12 04:59N 39°54' W 075°12'0 0.0
2017-Sep-12 04:27N 39°54' W 075°12'0 0.0
2017-Sep-12 04:00N 39°54' W 075°12'0 0.0
2017-Sep-12 03:30N 39°54' W 075°12'0 0.0
2017-Sep-12 02:58N 39°54' W 075°12'0 0.0
2017-Sep-12 02:28N 39°54' W 075°12'0 0.0
2017-Sep-12 01:58N 39°54' W 075°12'0 0.0
2017-Sep-12 01:29N 39°54' W 075°12'0 0.0
2017-Sep-12 00:59N 39°54' W 075°12'0 0.0
2017-Sep-12 00:29N 39°54' W 075°12'0 0.0
2017-Sep-12 00:00N 39°54' W 075°12'0 0.0
2017-Sep-11 23:30N 39°54' W 075°12'0 0.0
2017-Sep-11 23:00N 39°54' W 075°12'0 0.0
2017-Sep-11 22:28N 39°54' W 075°12'0 0.0
2017-Sep-11 21:58N 39°54' W 075°12'0 0.0
2017-Sep-11 21:28N 39°54' W 075°12'0 0.0
2017-Sep-11 20:59N 39°54' W 075°12'0 0.0
2017-Sep-11 20:29N 39°54' W 075°12'0 0.0
2017-Sep-11 19:59N 39°54' W 075°12'0 0.0
2017-Sep-11 19:30N 39°54' W 075°12'0 0.0
2017-Sep-11 19:00N 39°54' W 075°12'0 0.1
2017-Sep-11 18:31N 39°54' W 075°12'2 3.0
2017-Sep-11 18:00N 39°52' W 075°13'1 2.3
2017-Sep-11 17:31N 39°51' W 075°14'1 1.2
2017-Sep-11 17:00N 39°52' W 075°13'2 3.8
2017-Sep-11 16:29N 39°54' W 075°12'0 0.0
2017-Sep-11 16:00N 39°54' W 075°12'0 0.0
2017-Sep-11 15:30N 39°54' W 075°12'0 0.0
2017-Sep-11 15:00N 39°54' W 075°12'0 0.0
2017-Sep-11 14:28N 39°54' W 075°12'0 0.0
2017-Sep-11 13:59N 39°54' W 075°12'0 0.0
2017-Sep-11 13:23N 39°54' W 075°12'0 0.0
2017-Sep-11 12:59N 39°54' W 075°12'0 0.0
2017-Sep-11 12:30N 39°54' W 075°12'0 0.0
2017-Sep-11 12:00N 39°54' W 075°12'0 0.0
2017-Sep-11 11:30N 39°54' W 075°12'0 0.0
2017-Sep-11 11:00N 39°54' W 075°12'0 0.0
2017-Sep-11 10:28N 39°54' W 075°12'0 0.0
2017-Sep-11 09:58N 39°54' W 075°12'0 0.0
2017-Sep-11 09:29N 39°54' W 075°12'0 0.0
2017-Sep-11 08:59N 39°54' W 075°12'0 0.0
2017-Sep-11 08:29N 39°54' W 075°12'0 0.0
2017-Sep-11 08:00N 39°54' W 075°12'0 0.0
2017-Sep-11 07:30N 39°54' W 075°12'0 0.0
2017-Sep-11 07:00N 39°54' W 075°12'0 0.0
2017-Sep-11 06:28N 39°54' W 075°12'0 0.0
2017-Sep-11 05:58N 39°54' W 075°12'0 0.4
2017-Sep-11 05:31N 39°54' W 075°12'3 5.3
2017-Sep-11 05:00N 39°51' W 075°14'0 0.0
2017-Sep-11 04:28N 39°51' W 075°14'0 0.6
2017-Sep-11 03:58N 39°51' W 075°14'0 0.8
2017-Sep-11 03:29N 39°52' W 075°14'0 0.0
2017-Sep-11 03:00N 39°52' W 075°14'0 0.1
2017-Sep-11 02:30N 39°52' W 075°14'0 0.1
2017-Sep-11 02:00N 39°52' W 075°14'0 0.0
2017-Sep-11 01:28N 39°52' W 075°14'0 0.0
2017-Sep-11 00:58N 39°52' W 075°14'0 0.0
2017-Sep-11 00:28N 39°52' W 075°14'0 0.0
2017-Sep-10 23:59N 39°52' W 075°14'0 0.0
2017-Sep-10 23:29N 39°52' W 075°14'0 0.1
2017-Sep-10 22:59N 39°52' W 075°14'0 0.2
2017-Sep-10 22:30N 39°52' W 075°13'0 0.2
2017-Sep-10 22:00N 39°52' W 075°13'0 0.1
2017-Sep-10 21:30N 39°52' W 075°13'0 0.0
2017-Sep-10 20:58N 39°52' W 075°13'0 0.0
2017-Sep-10 20:28N 39°52' W 075°13'0 0.0
2017-Sep-10 19:58N 39°52' W 075°13'0 0.0
2017-Sep-10 19:29N 39°52' W 075°13'0 0.0
2017-Sep-10 18:59N 39°52' W 075°13'0 0.0
2017-Sep-10 18:29N 39°52' W 075°13'0 0.0
2017-Sep-10 18:00N 39°52' W 075°13'0 0.0
2017-Sep-10 17:30N 39°52' W 075°13'0 0.0
2017-Sep-10 17:00N 39°52' W 075°13'0 0.3
2017-Sep-10 16:28N 39°52' W 075°14'0 0.1
2017-Sep-10 15:58N 39°52' W 075°14'0 0.0
2017-Sep-10 15:28N 39°52' W 075°14'0 0.0
2017-Sep-10 14:59N 39°52' W 075°14'0 0.0
2017-Sep-10 13:59N 39°52' W 075°14'0 0.0
2017-Sep-10 13:30N 39°52' W 075°14'0 0.0
2017-Sep-10 13:00N 39°52' W 075°14'0 0.0
2017-Sep-10 12:30N 39°52' W 075°14'0 0.0
2017-Sep-10 11:58N 39°52' W 075°14'0 0.0
2017-Sep-10 11:28N 39°52' W 075°14'0 0.0
2017-Sep-10 10:58N 39°52' W 075°14'0 0.0
2017-Sep-10 10:29N 39°52' W 075°14'0 0.1
2017-Sep-10 09:59N 39°52' W 075°13'0 0.2
2017-Sep-10 09:26N 39°52' W 075°13'0 0.1
2017-Sep-10 09:00N 39°52' W 075°13'0 0.0
2017-Sep-10 08:30N 39°52' W 075°13'0 0.0
2017-Sep-10 08:00N 39°52' W 075°13'0 0.0
2017-Sep-10 07:28N 39°52' W 075°13'0 0.0
2017-Sep-10 06:58N 39°52' W 075°13'0 0.0
2017-Sep-10 06:28N 39°52' W 075°13'0 0.0
2017-Sep-10 05:59N 39°52' W 075°13'0 0.0
2017-Sep-10 05:29N 39°52' W 075°13'0 0.0
2017-Sep-10 04:59N 39°52' W 075°13'0 0.1
2017-Sep-10 04:30N 39°52' W 075°13'0 0.3
2017-Sep-10 04:00N 39°52' W 075°14'0 0.1
2017-Sep-10 03:30N 39°52' W 075°14'0 0.0
2017-Sep-10 02:58N 39°52' W 075°14'0 0.1
2017-Sep-10 02:28N 39°52' W 075°14'0 0.0
2017-Sep-10 01:58N 39°52' W 075°14'0 0.0
2017-Sep-10 01:29N 39°52' W 075°14'0 0.0
2017-Sep-10 00:59N 39°52' W 075°14'0 0.0
2017-Sep-10 00:29N 39°52' W 075°14'0 0.0
2017-Sep-10 00:00N 39°52' W 075°14'0 0.0
2017-Sep-09 23:30N 39°52' W 075°14'0 0.0
2017-Sep-09 23:00N 39°52' W 075°14'0 0.0
2017-Sep-09 22:28N 39°52' W 075°14'0 0.1
2017-Sep-09 21:58N 39°51' W 075°14'0 0.3
2017-Sep-09 21:28N 39°52' W 075°13'0 0.1
2017-Sep-09 20:59N 39°52' W 075°13'0 0.0
2017-Sep-09 20:29N 39°52' W 075°13'0 0.0
2017-Sep-09 19:59N 39°52' W 075°13'0 0.0
2017-Sep-09 19:30N 39°52' W 075°13'0 0.0
2017-Sep-09 19:00N 39°52' W 075°13'  

Dump ship's entire track history